Terminal Aerodrome Forecast
Issued by NWS Blacksburg, VA

Current Version | Previous Version | Text Only | Print | Product List | Glossary Off
Versions: 1 2 3 4 5 6 7 8 9 10 11 12 13 14 15 16 17 18 19 20 21 22 23 24 25 26 27 28 29 30 31 32 33 34 35

000
FTUS41 KRNK 281723
TAFBLF
TAF
KBLF 281723Z 2818/2918 30006KT P6SM SCT015
     FM282300 VRB03KT P6SM SKC
     FM290800 16005KT P6SM BKN250
     FM291500 21010G18KT P6SM BKN150=

USA.gov is the U.S. government's official web portal to all federal, state and local government web resources and services.